KMWC/MWC METAR and TAF weather

Enter ICAO airport designator
Station Type Date Time Source
KMWC METAR 2020/06/01 14:45 UTC NOAA

KMWC 011445Z 21007KT 10SM SCT070 OVC090 17/05 A3021


Station Type Date Time Source
KMWC Decoded METAR 2020/06/01 14:45 UTC NOAA

Milwaukee / Timmerman, WI, United States (KMWC) 43-07N 088-02W
Jun 01, 2020 - 10:45 AM EDT / 2020.06.01 1445 UTC
Wind: from the SSW (210 degrees) at 8 MPH (7 KT):0
Visibility: 10 mile(s):0
Sky conditions: overcast
Temperature: 62 F (17 C)
Dew Point: 41 F (5 C)
Relative Humidity: 45%
Pressure (altimeter): 30.21 in. Hg (1023 hPa)
ob: KMWC 011445Z 21007KT 10SM SCT070 OVC090 17/05 A3021
cycle: 15

Station Type Date Time Source
KMWC TAF UTC NOAA

Error!

Example: see airport list